Time;durP1;ratioP1;P1;durP2;ratioP2;P2;SDS_P1;SDS_P2;PMS_P1;PMS_P2;Temp;Humidity;BMP_temperature;BMP_pressure;BME280_temperature;BME280_humidity;BME280_pressure;Samples;Min_cycle;Max_cycle;Signal;HPM_P1;HPM_P2
2021/05/22 00:01:38;;;;;;;13.05;5.28;;;;;;;10.22;85.24;99639.09;5021950;28;20132;-69
2021/05/22 00:04:05;;;;;;;14.48;5.20;;;;;;;10.31;84.49;99643.72;5005822;28;20047;-69
2021/05/22 00:06:32;;;;;;;8.93;4.47;;;;;;;10.05;85.19;99642.97;5011265;28;20050;-68
2021/05/22 00:09:00;;;;;;;9.93;4.10;;;;;;;9.84;85.22;99626.94;5009635;28;20066;-68
2021/05/22 00:11:28;;;;;;;11.65;4.93;;;;;;;9.69;85.32;99630.69;5046624;28;20643;-69
2021/05/22 00:13:56;;;;;;;10.45;4.47;;;;;;;9.54;85.67;99624.69;4987516;28;20054;-69
2021/05/22 00:16:23;;;;;;;14.40;4.47;;;;;;;9.71;86.09;99626.13;5034157;28;20098;-69
2021/05/22 00:18:50;;;;;;;11.07;4.38;;;;;;;9.68;85.23;99623.72;4991550;28;20121;-69
2021/05/22 00:21:18;;;;;;;10.57;3.95;;;;;;;9.56;85.30;99625.44;4984730;28;20058;-69
2021/05/22 00:23:45;;;;;;;8.68;3.17;;;;;;;9.40;85.47;99625.66;5035028;28;20130;-69
2021/05/22 00:26:12;;;;;;;10.27;3.55;;;;;;;9.35;83.41;99610.22;4987031;28;20061;-68
2021/05/22 00:28:40;;;;;;;7.28;2.83;;;;;;;9.29;82.82;99597.53;5014051;28;20058;-68
2021/05/22 00:31:07;;;;;;;7.38;3.35;;;;;;;9.29;81.88;99594.06;5055519;28;20603;-69
2021/05/22 00:33:34;;;;;;;12.98;2.95;;;;;;;9.34;81.96;99586.72;5033384;28;20150;-68
2021/05/22 00:36:01;;;;;;;7.00;3.30;;;;;;;9.30;81.98;99570.31;5013660;28;20090;-69
2021/05/22 00:38:28;;;;;;;12.57;3.08;;;;;;;9.33;81.27;99566.66;5035633;28;20053;-68
2021/05/22 00:40:56;;;;;;;11.15;3.08;;;;;;;9.32;81.50;99583.34;4991587;28;20586;-69
2021/05/22 00:43:23;;;;;;;9.55;3.20;;;;;;;9.28;80.86;99574.03;5044122;28;20183;-69
2021/05/22 00:45:54;;;;;;;6.82;2.75;;;;;;;9.19;80.97;99572.03;4997164;28;20090;-69
2021/05/22 00:48:22;;;;;;;6.65;2.65;;;;;;;9.20;81.45;99569.31;5048807;28;20057;-69
2021/05/22 00:50:51;;;;;;;7.10;2.83;;;;;;;9.21;79.45;99573.59;5002630;28;20503;-70
2021/05/22 00:53:18;;;;;;;9.75;3.90;;;;;;;9.17;79.81;99577.38;5013959;28;20073;-69
2021/05/22 00:55:45;;;;;;;12.10;2.97;;;;;;;9.09;79.80;99575.28;4989057;28;20054;-70
2021/05/22 00:58:13;;;;;;;14.38;2.72;;;;;;;9.09;78.71;99577.06;4987131;28;20066;-68
2021/05/22 01:00:45;;;;;;;9.75;3.30;;;;;;;9.28;79.79;99582.75;5048366;28;20044;-69
2021/05/22 01:03:17;;;;;;;7.38;3.17;;;;;;;9.19;79.32;99580.75;4994578;28;20064;-68
2021/05/22 01:05:45;;;;;;;8.77;2.83;;;;;;;9.06;79.08;99570.25;5030297;28;20056;-69
2021/05/22 01:08:16;;;;;;;10.57;3.20;;;;;;;9.02;78.08;99568.78;5007752;28;20051;-69
2021/05/22 01:10:44;;;;;;;6.82;3.03;;;;;;;9.42;79.56;99578.31;5000839;28;20050;-68
2021/05/22 01:13:13;;;;;;;8.13;3.40;;;;;;;9.50;77.59;99574.19;5021831;28;20079;-69
2021/05/22 01:15:42;;;;;;;10.90;3.25;;;;;;;9.57;77.41;99578.03;5020299;28;20043;-69
2021/05/22 01:18:09;;;;;;;10.82;3.28;;;;;;;9.36;78.16;99577.75;5034236;28;20495;-69
2021/05/22 01:20:42;;;;;;;12.85;2.97;;;;;;;9.28;77.84;99574.03;5036979;28;20069;-69
2021/05/22 01:23:21;;;;;;;6.85;2.00;;;;;;;9.05;77.14;99579.09;5009539;28;20384;-69
2021/05/22 01:25:50;;;;;;;15.73;3.28;;;;;;;8.99;76.85;99569.00;5033461;28;20085;-67
2021/05/22 01:28:17;;;;;;;12.02;2.63;;;;;;;9.00;77.58;99560.16;5060739;28;20049;-68
2021/05/22 01:30:46;;;;;;;9.63;2.60;;;;;;;9.17;77.86;99559.00;5009364;28;20054;-68
2021/05/22 01:33:13;;;;;;;9.93;2.40;;;;;;;9.21;75.94;99573.59;5022129;28;20090;-68
2021/05/22 01:35:42;;;;;;;11.95;2.95;;;;;;;9.18;76.66;99573.81;5017225;28;20050;-69
2021/05/22 01:38:09;;;;;;;10.50;2.50;;;;;;;9.06;76.70;99572.88;4985885;28;20141;-69
2021/05/22 01:40:36;;;;;;;9.52;2.95;;;;;;;8.97;76.67;99567.44;4975311;28;20386;-68
2021/05/22 01:43:05;;;;;;;8.05;2.78;;;;;;;9.12;76.03;99575.06;5013012;28;20051;-68
2021/05/22 01:45:36;;;;;;;6.28;2.05;;;;;;;9.21;76.19;99570.13;5009756;28;20054;-68
2021/05/22 01:48:04;;;;;;;14.90;2.85;;;;;;;9.25;75.98;99574.22;4992015;28;20062;-69
2021/05/22 01:50:33;;;;;;;10.75;2.55;;;;;;;9.13;76.24;99563.63;5026219;28;20402;-69
2021/05/22 01:53:02;;;;;;;8.10;2.03;;;;;;;8.98;76.00;99563.88;5036831;28;20051;-69
2021/05/22 01:55:29;;;;;;;7.15;2.03;;;;;;;8.95;76.50;99574.56;5034394;28;20063;-68
2021/05/22 01:57:56;;;;;;;5.82;2.20;;;;;;;8.94;75.44;99560.59;5002905;28;20056;-68
2021/05/22 02:00:23;;;;;;;4.68;1.90;;;;;;;8.92;75.54;99553.78;5019051;28;20061;-69
2021/05/22 02:02:55;;;;;;;9.35;2.35;;;;;;;9.02;75.67;99563.53;4999322;28;20039;-67
2021/05/22 02:05:22;;;;;;;5.57;2.45;;;;;;;9.02;75.58;99558.28;5032132;28;20140;-68
2021/05/22 02:07:50;;;;;;;9.63;2.60;;;;;;;8.95;76.15;99549.16;4993078;28;20492;-69
2021/05/22 02:10:18;;;;;;;8.07;3.28;;;;;;;9.07;76.02;99556.19;5009000;28;20054;-68
2021/05/22 02:12:45;;;;;;;8.05;2.30;;;;;;;9.03;76.54;99559.13;5000343;28;20337;-67
2021/05/22 02:15:13;;;;;;;9.35;2.72;;;;;;;8.91;76.36;99563.44;5012247;28;20107;-70
2021/05/22 02:17:42;;;;;;;5.22;2.13;;;;;;;8.86;76.72;99553.25;5016625;28;20137;-69
2021/05/22 02:20:10;;;;;;;7.85;2.60;;;;;;;8.82;77.38;99553.56;4983655;28;20069;-69
2021/05/22 02:22:38;;;;;;;7.90;2.58;;;;;;;8.84;77.81;99564.81;5009371;28;20137;-69
2021/05/22 02:25:06;;;;;;;8.77;2.45;;;;;;;8.77;77.51;99559.13;5031455;28;20472;-67
2021/05/22 02:27:35;;;;;;;5.32;2.10;;;;;;;8.83;78.04;99563.16;5002356;28;20107;-69
2021/05/22 02:30:07;;;;;;;10.75;2.47;;;;;;;9.41;75.54;99566.09;4974407;28;20046;-69
2021/05/22 02:32:36;;;;;;;5.75;2.42;;;;;;;9.19;76.59;99567.63;5020664;28;20074;-68
2021/05/22 02:35:04;;;;;;;9.63;2.95;;;;;;;9.08;76.75;99565.72;5017527;28;20153;-69
2021/05/22 02:37:33;;;;;;;8.15;2.00;;;;;;;8.98;77.88;99567.31;5003510;28;20058;-69
2021/05/22 02:40:06;;;;;;;15.40;2.70;;;;;;;9.24;77.10;99575.19;5026070;28;20050;-68
2021/05/22 02:42:34;;;;;;;11.93;2.50;;;;;;;9.31;76.73;99573.78;5039275;28;20138;-68
2021/05/22 02:45:03;;;;;;;10.45;2.60;;;;;;;9.23;76.97;99568.22;5023738;28;20074;-69
2021/05/22 02:47:30;;;;;;;8.73;2.13;;;;;;;9.44;77.03;99571.97;5050687;28;20052;-68
2021/05/22 02:50:06;;;;;;;6.47;2.17;;;;;;;9.56;76.69;99581.63;5024932;28;20224;-69
2021/05/22 02:52:33;;;;;;;;;;;;;;;9.83;75.81;99578.78;5015874;28;20472;-68
2021/05/22 02:55:01;;;;;;;10.38;1.83;;;;;;;9.82;75.25;99582.38;5026745;28;19930;-68
2021/05/22 02:57:28;;;;;;;11.23;2.85;;;;;;;9.80;75.21;99586.06;4985283;28;20058;-69
2021/05/22 02:59:56;;;;;;;12.70;2.20;;;;;;;9.85;75.47;99584.75;5025959;28;20042;-69
2021/05/22 03:02:23;;;;;;;5.97;1.77;;;;;;;9.92;75.29;99589.59;4986963;28;20059;-70
2021/05/22 03:04:52;;;;;;;4.25;1.88;;;;;;;9.71;76.32;99582.28;5010641;28;20047;-69
2021/05/22 03:07:19;;;;;;;5.15;2.35;;;;;;;9.69;76.55;99586.00;5033332;28;20436;-69
2021/05/22 03:09:46;;;;;;;9.13;2.05;;;;;;;9.83;76.39;99575.34;5021868;28;20073;-69
2021/05/22 03:12:19;;;;;;;7.20;2.20;;;;;;;9.83;76.03;99575.34;4989203;28;20108;-70
2021/05/22 03:14:46;;;;;;;10.57;2.60;;;;;;;10.06;75.54;99577.13;5023417;28;20054;-69
2021/05/22 03:17:13;;;;;;;5.53;2.30;;;;;;;10.01;75.94;99578.41;4994047;28;20064;-69
2021/05/22 03:19:41;;;;;;;7.65;1.92;;;;;;;9.90;76.48;99577.38;4983675;28;20066;-69
2021/05/22 03:22:08;;;;;;;4.47;1.85;;;;;;;9.82;77.26;99566.59;5024809;28;20213;-69
2021/05/22 03:24:35;;;;;;;10.98;2.65;;;;;;;9.78;77.68;99564.31;5024834;28;20098;-69
2021/05/22 03:27:02;;;;;;;3.92;1.77;;;;;;;9.82;78.20;99574.50;4994630;28;20118;-69
2021/05/22 03:29:31;;;;;;;6.32;2.20;;;;;;;9.78;78.21;99574.81;4981862;28;20543;-69
2021/05/22 03:31:58;;;;;;;8.25;2.55;;;;;;;9.71;78.32;99574.41;5010135;28;20412;-68
2021/05/22 03:34:25;;;;;;;4.72;2.25;;;;;;;9.61;79.53;99574.25;5020265;28;20093;-68
2021/05/22 03:36:52;;;;;;;11.77;2.10;;;;;;;9.65;79.04;99577.50;5001821;28;20059;-68
2021/05/22 03:39:19;;;;;;;7.70;2.58;;;;;;;9.74;79.33;99576.00;5021002;28;20141;-68
2021/05/22 03:41:46;;;;;;;6.88;2.30;;;;;;;10.13;78.61;99574.84;5023277;28;20133;-69
2021/05/22 03:44:14;;;;;;;6.47;2.10;;;;;;;10.43;76.30;99578.84;5022433;28;20138;-69
2021/05/22 03:46:41;;;;;;;6.78;1.90;;;;;;;10.70;75.26;99576.75;4991364;28;20046;-69
2021/05/22 03:49:08;;;;;;;7.53;1.80;;;;;;;10.82;74.95;99577.63;5005357;28;20054;-69
2021/05/22 03:51:35;;;;;;;9.80;2.05;;;;;;;11.00;74.20;99583.25;4985394;28;20054;-68
2021/05/22 03:54:03;;;;;;;9.35;2.58;;;;;;;11.06;74.35;99570.44;5030495;28;20066;-68
2021/05/22 03:56:30;;;;;;;3.92;2.10;;;;;;;11.11;74.15;99581.47;5033986;28;20533;-70
2021/05/22 03:58:57;;;;;;;7.78;2.63;;;;;;;11.06;74.51;99578.34;5027773;28;20659;-68
2021/05/22 04:01:25;;;;;;;5.85;2.40;;;;;;;11.15;74.26;99585.53;5017073;28;20057;-69
2021/05/22 04:03:52;;;;;;;5.97;1.95;;;;;;;11.21;74.21;99589.47;5000507;28;20553;-68
2021/05/22 04:06:19;;;;;;;9.50;2.22;;;;;;;11.12;74.75;99592.81;4988432;28;20904;-68
2021/05/22 04:12:46;;;;;;;6.10;2.65;;;;;;;11.42;73.73;99608.06;4974630;28;20514;-70
2021/05/22 04:15:14;;;;;;;9.00;2.70;;;;;;;11.50;74.28;99600.38;5019609;28;20082;-68
2021/05/22 04:17:41;;;;;;;6.03;3.67;;;;;;;11.74;73.03;99599.38;4994108;28;20048;-69
2021/05/22 04:20:09;;;;;;;7.72;3.13;;;;;;;11.69;73.26;99607.66;5028704;28;20149;-68
2021/05/22 04:22:36;;;;;;;3.95;1.98;;;;;;;11.76;73.09;99608.03;4990115;28;20396;-69
2021/05/22 04:25:04;;;;;;;9.65;2.75;;;;;;;11.89;72.88;99608.75;5039090;28;20138;-68
2021/05/22 04:27:31;;;;;;;5.20;2.10;;;;;;;11.89;72.75;99609.59;5038476;28;20055;-68
2021/05/22 04:29:58;;;;;;;6.20;2.30;;;;;;;11.78;73.40;99609.56;5020522;28;20043;-68
2021/05/22 04:32:25;;;;;;;3.95;2.38;;;;;;;11.74;73.74;99609.94;4989728;28;20237;-70
2021/05/22 04:34:53;;;;;;;4.93;2.05;;;;;;;11.78;73.77;99601.66;4988701;28;20516;-68
2021/05/22 04:37:20;;;;;;;8.77;2.53;;;;;;;11.90;73.30;99605.16;5005247;28;20079;-69
2021/05/22 04:39:48;;;;;;;3.60;1.85;;;;;;;12.01;72.64;99606.91;5032928;28;20477;-69
2021/05/22 04:42:16;;;;;;;9.40;1.90;;;;;;;12.14;71.86;99597.03;5001723;28;20074;-68
2021/05/22 04:44:43;;;;;;;5.90;1.90;;;;;;;12.32;71.90;99595.50;5054770;28;20051;-68
2021/05/22 04:47:10;;;;;;;5.28;2.08;;;;;;;12.57;70.43;99594.34;5012913;28;20096;-70
2021/05/22 04:49:37;;;;;;;5.70;1.80;;;;;;;12.99;69.06;99586.38;5045383;28;20461;-69
2021/05/22 04:52:04;;;;;;;5.38;1.65;;;;;;;13.47;68.06;99590.25;5009543;28;20070;-69
2021/05/22 04:54:32;;;;;;;5.13;1.90;;;;;;;15.14;62.62;99591.81;5053691;28;20049;-69
2021/05/22 04:56:59;;;;;;;4.10;1.77;;;;;;;16.49;57.55;99589.34;4989127;28;20076;-69
2021/05/22 04:59:26;;;;;;;2.70;1.50;;;;;;;16.67;56.13;99585.66;4989304;28;20134;-69
2021/05/22 05:01:53;;;;;;;4.53;1.60;;;;;;;15.90;57.75;99592.44;4986474;28;20046;-69
2021/05/22 05:04:20;;;;;;;2.92;1.80;;;;;;;15.40;59.62;99594.63;5001316;28;20054;-68
2021/05/22 05:06:47;;;;;;;4.45;1.88;;;;;;;14.52;62.72;99599.31;4988197;28;20168;-68
2021/05/22 05:09:15;;;;;;;5.72;1.85;;;;;;;14.04;64.74;99602.75;5032897;28;20050;-68
2021/05/22 05:11:42;;;;;;;4.80;1.75;;;;;;;13.98;64.63;99592.72;5046216;28;20048;-70
2021/05/22 05:14:09;;;;;;;5.28;1.83;;;;;;;14.02;65.07;99593.28;5040618;28;20068;-68
2021/05/22 05:16:36;;;;;;;4.22;1.90;;;;;;;13.82;66.23;99587.94;4988665;28;20052;-69
2021/05/22 05:19:04;;;;;;;6.22;1.63;;;;;;;13.72;66.62;99580.97;5044725;28;20243;-68
2021/05/22 05:21:31;;;;;;;6.72;1.80;;;;;;;14.42;64.61;99580.75;5034286;28;20432;-69
2021/05/22 05:23:58;;;;;;;5.03;1.70;;;;;;;15.28;62.71;99582.53;5041136;28;20058;-69
2021/05/22 05:26:25;;;;;;;3.78;1.42;;;;;;;16.65;57.98;99587.63;5029949;28;20066;-69
2021/05/22 05:28:53;;;;;;;5.80;1.80;;;;;;;16.91;57.04;99589.50;5010619;28;20057;-68
2021/05/22 05:31:20;;;;;;;2.17;1.50;;;;;;;17.37;54.70;99587.44;4999514;28;20048;-69
2021/05/22 05:33:47;;;;;;;5.55;1.58;;;;;;;17.91;52.80;99601.28;5021369;28;20376;-69
2021/05/22 05:36:14;;;;;;;3.30;1.42;;;;;;;16.91;55.48;99592.16;5026577;28;20565;-68
2021/05/22 05:38:41;;;;;;;3.85;1.77;;;;;;;16.71;56.04;99592.34;4983450;28;20129;-68
2021/05/22 05:41:08;;;;;;;4.40;1.63;;;;;;;15.65;59.38;99599.28;5038839;28;20558;-69
2021/05/22 05:43:36;;;;;;;20.80;2.70;;;;;;;14.81;62.67;99601.91;4990016;28;20140;-69
2021/05/22 05:46:04;;;;;;;37.67;4.18;;;;;;;14.61;63.59;99605.59;4991834;28;20286;-68
2021/05/22 05:48:31;;;;;;;15.15;2.05;;;;;;;14.46;63.95;99613.09;4985201;28;20140;-68
2021/05/22 05:50:58;;;;;;;3.92;1.83;;;;;;;14.00;65.43;99616.38;4996468;28;20048;-68
2021/05/22 05:53:25;;;;;;;5.13;2.13;;;;;;;13.74;66.07;99616.06;4991415;28;20056;-68
2021/05/22 05:55:52;;;;;;;10.13;1.88;;;;;;;13.65;65.90;99625.66;4986493;28;20058;-69
2021/05/22 05:58:19;;;;;;;5.93;1.55;;;;;;;13.48;69.74;99621.84;5030531;28;20137;-68
2021/05/22 06:00:47;;;;;;;8.25;1.90;;;;;;;12.97;73.10;99627.97;5025974;28;20077;-69
2021/05/22 06:03:24;;;;;;;5.80;1.85;;;;;;;12.28;79.09;99620.47;4994707;28;20046;-69
2021/05/22 06:05:52;;;;;;;4.28;1.52;;;;;;;12.13;82.45;99622.59;5018462;28;20058;-67
2021/05/22 06:08:20;;;;;;;4.22;1.63;;;;;;;11.94;83.46;99627.69;5034348;28;20062;-68
2021/05/22 06:10:49;;;;;;;6.47;2.28;;;;;;;12.01;85.13;99620.94;5005310;28;20544;-68
2021/05/22 06:13:27;;;;;;;6.03;1.80;;;;;;;11.82;85.99;99623.34;4987622;28;20050;-68
2021/05/22 06:16:04;;;;;;;4.82;1.70;;;;;;;12.08;83.72;99626.56;5005515;28;20051;-69
2021/05/22 06:18:33;;;;;;;6.78;2.30;;;;;;;11.91;85.42;99631.38;4989892;28;20089;-68
2021/05/22 06:21:01;;;;;;;6.90;2.72;;;;;;;11.90;86.89;99618.34;4974419;28;20141;-69
2021/05/22 06:23:28;;;;;;;2.92;1.50;;;;;;;12.15;85.50;99627.72;4992093;28;20492;-69
2021/05/22 06:25:56;;;;;;;6.40;2.30;;;;;;;12.38;83.70;99626.72;5028094;28;20150;-69
2021/05/22 06:28:23;;;;;;;5.95;1.67;;;;;;;12.50;82.69;99616.09;5042094;28;20050;-68
2021/05/22 06:30:50;;;;;;;9.07;1.65;;;;;;;12.60;82.36;99619.63;4967912;28;20201;-68
2021/05/22 06:33:17;;;;;;;7.03;1.83;;;;;;;12.63;81.25;99630.78;4979170;28;20050;-69
2021/05/22 06:35:45;;;;;;;6.35;2.85;;;;;;;12.60;82.57;99632.81;4995670;28;20082;-68
2021/05/22 06:38:12;;;;;;;4.28;1.60;;;;;;;12.48;82.06;99645.25;4975486;28;20116;-68
2021/05/22 06:40:39;;;;;;;5.57;2.22;;;;;;;12.42;84.13;99637.81;4995466;28;20056;-68
2021/05/22 06:43:06;;;;;;;5.88;1.95;;;;;;;12.59;82.68;99634.63;5012578;28;20455;-68
2021/05/22 06:45:44;;;;;;;5.60;1.85;;;;;;;13.17;80.21;99632.38;5021038;28;20133;-69
2021/05/22 06:48:13;;;;;;;5.22;1.75;;;;;;;14.28;75.95;99635.94;4973106;28;20487;-68
2021/05/22 06:50:41;;;;;;;7.85;1.95;;;;;;;15.95;70.10;99631.81;4969325;28;21686;-69
2021/05/22 06:53:08;;;;;;;5.13;1.60;;;;;;;17.07;62.78;99626.03;5017282;28;20042;-69
2021/05/22 06:55:35;;;;;;;5.18;1.65;;;;;;;18.12;58.41;99625.66;5048600;28;20129;-67
2021/05/22 06:58:05;;;;;;;6.50;1.73;;;;;;;18.66;55.50;99622.56;4998194;28;20072;-69
2021/05/22 07:00:32;;;;;;;3.40;1.40;;;;;;;18.31;57.82;99621.03;4990719;28;20058;-67
2021/05/22 07:03:00;;;;;;;8.75;2.05;;;;;;;18.04;58.22;99619.47;4984987;28;20125;-69
2021/05/22 07:05:27;;;;;;;5.90;1.63;;;;;;;18.69;55.87;99617.75;4993278;28;20055;-68
2021/05/22 07:07:55;;;;;;;2.90;1.48;;;;;;;18.65;55.26;99620.91;4994250;28;20530;-70
2021/05/22 07:10:23;;;;;;;5.38;1.17;;;;;;;19.07;54.28;99626.03;4983440;28;20074;-68
2021/05/22 07:12:50;;;;;;;2.40;0.80;;;;;;;20.16;50.17;99636.00;4987248;28;20137;-68
2021/05/22 07:15:17;;;;;;;3.83;1.50;;;;;;;20.68;48.71;99630.00;4979877;28;20108;-68
2021/05/22 07:17:46;;;;;;;4.32;1.52;;;;;;;19.47;51.50;99624.28;4997510;28;20505;-70
2021/05/22 07:20:14;;;;;;;2.53;1.42;;;;;;;19.42;51.11;99626.63;5037488;28;20145;-71
2021/05/22 07:22:42;;;;;;;4.55;1.40;;;;;;;20.46;48.42;99625.44;4985822;28;20050;-71
2021/05/22 07:25:10;;;;;;;4.70;1.60;;;;;;;19.84;49.53;99630.84;5034316;28;20129;-70
2021/05/22 07:27:37;;;;;;;6.63;1.83;;;;;;;20.15;48.20;99620.97;5035971;28;20135;-70
2021/05/22 07:30:09;;;;;;;4.72;1.40;;;;;;;19.84;49.48;99626.31;5026853;28;20054;-69
2021/05/22 07:32:37;;;;;;;4.45;0.90;;;;;;;20.37;48.82;99632.69;5040951;28;20038;-71
2021/05/22 07:35:06;;;;;;;5.70;1.30;;;;;;;20.01;47.60;99635.09;5024887;28;20520;-72
2021/05/22 07:37:34;;;;;;;4.65;1.48;;;;;;;18.91;50.19;99642.06;5003075;28;20101;-72
2021/05/22 07:40:01;;;;;;;3.85;1.83;;;;;;;18.31;50.51;99639.69;4985414;28;20589;-71
2021/05/22 07:42:28;;;;;;;3.20;1.17;;;;;;;17.96;53.14;99641.59;4988220;28;20846;-70
2021/05/22 07:44:56;;;;;;;3.40;1.30;;;;;;;17.99;53.39;99637.78;4990182;28;20057;-72
2021/05/22 07:47:24;;;;;;;3.65;1.20;;;;;;;17.93;53.53;99641.94;5064496;28;20058;-72
2021/05/22 07:49:52;;;;;;;2.60;1.33;;;;;;;20.07;47.76;99644.22;5002344;28;20548;-73
2021/05/22 07:52:21;;;;;;;2.65;1.45;;;;;;;20.97;45.51;99641.75;4981633;28;20141;-70
2021/05/22 07:54:50;;;;;;;4.78;1.27;;;;;;;20.57;44.85;99632.25;4982409;28;20431;-72
2021/05/22 07:57:17;;;;;;;4.32;1.25;;;;;;;20.66;45.07;99644.53;4992057;28;20055;-71
2021/05/22 07:59:45;;;;;;;5.43;1.48;;;;;;;20.36;45.21;99644.41;5007264;28;20057;-70
2021/05/22 08:02:12;;;;;;;13.30;3.42;;;;;;;21.91;41.81;99642.91;5018799;28;20081;-71
2021/05/22 08:04:39;;;;;;;11.77;3.40;;;;;;;21.07;43.17;99650.34;5031868;28;20042;-70
2021/05/22 08:07:06;;;;;;;5.93;1.95;;;;;;;19.43;46.59;99646.97;5050189;28;20046;-71
2021/05/22 08:09:33;;;;;;;7.03;1.70;;;;;;;18.61;49.25;99646.22;5013477;28;20058;-70
2021/05/22 08:12:00;;;;;;;7.13;2.00;;;;;;;20.59;44.80;99635.59;4999307;28;20384;-71
2021/05/22 08:14:28;;;;;;;6.05;2.35;;;;;;;21.58;42.04;99631.78;4984988;28;20335;-71
2021/05/22 08:16:55;;;;;;;7.13;1.67;;;;;;;22.62;39.44;99639.59;4995102;28;20457;-70
2021/05/22 08:19:22;;;;;;;7.10;1.80;;;;;;;23.81;35.52;99637.75;5025677;28;20145;-70
2021/05/22 08:21:49;;;;;;;5.60;1.48;;;;;;;23.44;35.31;99647.03;5027842;28;20082;-73
2021/05/22 08:24:16;;;;;;;6.57;1.50;;;;;;;23.16;36.67;99647.91;5018416;28;20055;-72
2021/05/22 08:26:44;;;;;;;6.05;1.38;;;;;;;21.87;38.59;99651.53;4980762;28;20046;-71
2021/05/22 08:29:32;;;;;;;10.88;1.95;;;;;;;21.90;39.21;99646.63;5033085;28;20360;-70
2021/05/22 08:32:00;;;;;;;3.03;0.98;;;;;;;20.22;41.43;99653.19;5012537;28;20507;-71
2021/05/22 08:34:27;;;;;;;4.28;1.92;;;;;;;19.73;41.76;99640.06;4986214;28;20062;-70
2021/05/22 08:36:55;;;;;;;4.63;1.58;;;;;;;19.71;41.81;99642.06;5008850;28;20086;-70
2021/05/22 08:39:22;;;;;;;5.20;1.30;;;;;;;19.64;41.96;99636.59;5051130;28;20065;-70
2021/05/22 08:41:50;;;;;;;3.90;1.17;;;;;;;19.09;42.50;99640.06;5038653;28;20068;-70
2021/05/22 08:44:17;;;;;;;6.75;1.70;;;;;;;19.37;41.63;99634.31;4991958;28;20610;-72
2021/05/22 08:46:45;;;;;;;6.03;1.75;;;;;;;19.49;40.95;99627.59;4985331;28;20042;-70
2021/05/22 08:49:14;;;;;;;4.28;1.15;;;;;;;19.36;40.99;99632.63;4999188;28;20080;-70
2021/05/22 08:51:42;;;;;;;8.35;1.67;;;;;;;19.26;41.29;99624.00;5010541;28;20153;-72
2021/05/22 08:54:09;;;;;;;5.38;1.92;;;;;;;19.12;42.14;99625.53;5021521;28;20131;-69
2021/05/22 08:56:36;;;;;;;3.22;1.10;;;;;;;19.13;41.20;99630.69;5000441;28;20520;-70
2021/05/22 08:59:04;;;;;;;4.85;1.63;;;;;;;19.23;41.83;99627.88;5003331;28;20512;-69
2021/05/22 09:01:31;;;;;;;5.25;1.20;;;;;;;19.53;41.14;99625.41;5055740;28;20049;-71
2021/05/22 09:03:58;;;;;;;5.10;1.13;;;;;;;19.67;40.00;99620.22;5008800;28;20059;-70
2021/05/22 09:06:25;;;;;;;5.43;1.42;;;;;;;18.57;41.44;99620.88;4998677;28;20510;-69
2021/05/22 09:09:05;;;;;;;6.88;1.75;;;;;;;18.50;42.43;99617.22;4995704;28;20074;-71
2021/05/22 09:11:52;;;;;;;5.57;1.08;;;;;;;18.74;40.98;99616.44;5008603;28;20419;-71
2021/05/22 09:14:43;;;;;;;5.22;1.27;;;;;;;19.87;38.96;99609.94;5038737;28;20137;-71
2021/05/22 09:17:12;;;;;;;4.60;1.10;;;;;;;19.79;39.30;99619.84;4978812;28;20062;-71
2021/05/22 09:19:40;;;;;;;8.90;1.42;;;;;;;19.54;39.78;99619.06;5046395;28;20532;-71
2021/05/22 09:22:20;;;;;;;4.35;1.50;;;;;;;19.08;39.82;99618.88;5000840;28;20058;-68
2021/05/22 09:25:04;;;;;;;4.30;1.77;;;;;;;18.37;41.20;99625.69;4982815;28;20050;-67
2021/05/22 09:27:33;;;;;;;4.80;1.45;;;;;;;18.15;41.58;99617.34;5036278;28;20122;-68
2021/05/22 09:30:21;;;;;;;4.05;1.35;;;;;;;18.41;42.08;99613.69;4990180;28;20288;-69
2021/05/22 09:32:48;;;;;;;7.78;1.30;;;;;;;18.45;42.61;99613.19;4979595;28;20054;-69
2021/05/22 09:35:17;;;;;;;5.82;1.67;;;;;;;18.19;42.64;99618.69;5018846;28;20488;-68
2021/05/22 09:37:52;;;;;;;7.32;2.05;;;;;;;18.13;42.20;99615.84;4983875;28;20137;-68
2021/05/22 09:40:21;;;;;;;;;;;;;;;18.49;40.70;99621.72;5044061;28;20078;-69
2021/05/22 09:42:48;;;;;;;5.60;1.20;;;;;;;18.71;39.98;99618.41;5028010;28;19928;-68
2021/05/22 09:45:21;;;;;;;4.88;1.10;;;;;;;18.67;39.34;99610.88;5000419;28;20516;-69
2021/05/22 09:47:48;;;;;;;4.88;1.00;;;;;;;18.59;40.31;99617.03;5004327;28;20364;-69
2021/05/22 09:50:30;;;;;;;4.18;1.13;;;;;;;18.36;40.44;99624.03;5021303;28;20090;-69
2021/05/22 09:52:58;;;;;;;5.53;1.05;;;;;;;17.88;40.63;99618.44;5040398;28;20050;-69
2021/05/22 09:55:25;;;;;;;6.80;1.70;;;;;;;17.61;40.46;99606.19;4985328;28;20091;-68
2021/05/22 09:57:56;;;;;;;5.35;1.10;;;;;;;17.32;41.34;99613.69;5046625;28;20089;-69
2021/05/22 10:00:26;;;;;;;4.97;1.40;;;;;;;17.49;40.87;99606.63;5040477;28;20085;-68
2021/05/22 10:02:57;;;;;;;4.50;1.13;;;;;;;18.28;39.45;99603.56;5003120;28;20137;-68
2021/05/22 10:05:32;;;;;;;8.48;1.40;;;;;;;18.59;38.85;99597.56;4984306;28;20142;-68
2021/05/22 10:08:02;;;;;;;5.03;1.17;;;;;;;18.37;39.07;99599.03;4987720;28;20054;-69
2021/05/22 10:10:46;;;;;;;4.20;1.15;;;;;;;18.03;39.21;99596.50;5015065;28;20055;-68
2021/05/22 10:13:19;;;;;;;6.18;1.35;;;;;;;17.84;39.84;99601.13;4992682;28;20050;-67
2021/05/22 10:15:49;;;;;;;5.07;1.27;;;;;;;18.27;38.89;99603.69;5041383;28;20118;-68
2021/05/22 10:18:17;;;;;;;5.70;1.77;;;;;;;18.42;39.30;99602.06;4991299;28;20364;-68
2021/05/22 10:20:45;;;;;;;5.30;0.82;;;;;;;19.12;36.88;99591.69;4982901;28;20149;-71
2021/05/22 10:23:13;;;;;;;2.95;1.00;;;;;;;18.64;37.48;99598.75;5021690;28;20053;-69
2021/05/22 10:25:41;;;;;;;4.00;1.08;;;;;;;18.89;37.36;99609.41;4997987;28;20141;-68
2021/05/22 10:28:09;;;;;;;4.85;1.17;;;;;;;17.93;39.20;99608.16;5038461;28;20082;-69
2021/05/22 10:30:36;;;;;;;6.28;1.48;;;;;;;17.94;39.37;99616.97;4986958;28;20058;-69
2021/05/22 10:33:08;;;;;;;5.90;1.13;;;;;;;16.42;41.09;99648.38;4981986;28;20046;-68
2021/05/22 10:35:45;;;;;;;4.60;0.70;;;;;;;15.90;46.33;99653.50;5029631;28;21022;-68
2021/05/22 10:38:41;;;;;;;6.60;2.00;;;;;;;14.60;59.84;99656.91;4980513;28;20123;-68
2021/05/22 10:41:13;;;;;;;6.38;1.25;;;;;;;12.95;68.61;99653.66;5003888;28;20166;-69
2021/05/22 10:43:51;;;;;;;9.35;0.90;;;;;;;12.82;72.14;99659.13;4985395;28;20049;-69
2021/05/22 10:46:18;;;;;;;4.43;1.48;;;;;;;13.17;73.05;99658.78;5010949;28;20170;-68
2021/05/22 10:49:00;;;;;;;8.75;1.73;;;;;;;13.49;74.15;99670.25;4986574;28;20054;-68
2021/05/22 10:51:36;;;;;;;5.05;1.35;;;;;;;13.55;74.60;99659.13;4990768;28;20135;-67
2021/05/22 10:54:05;;;;;;;4.88;1.33;;;;;;;13.59;74.27;99657.91;5009190;28;20062;-67
2021/05/22 10:56:32;;;;;;;4.20;1.50;;;;;;;13.51;73.81;99655.09;5004800;28;20071;-70
2021/05/22 10:59:07;;;;;;;6.35;1.20;;;;;;;13.64;75.13;99645.97;4986886;28;20142;-68
2021/05/22 11:01:35;;;;;;;9.13;1.90;;;;;;;14.57;71.48;99644.75;5048319;28;20058;-69
2021/05/22 11:04:13;;;;;;;6.18;1.38;;;;;;;15.15;71.41;99639.38;5039619;28;20405;-70
2021/05/22 11:06:42;;;;;;;5.13;1.75;;;;;;;14.99;70.00;99643.59;5018109;28;20054;-69
2021/05/22 11:09:32;;;;;;;4.47;1.55;;;;;;;15.17;65.97;99641.88;5044479;28;20054;-71
2021/05/22 11:12:29;;;;;;;9.30;1.58;;;;;;;15.12;66.25;99642.31;5028543;28;20484;-69
2021/05/22 11:14:57;;;;;;;4.68;1.65;;;;;;;15.20;65.51;99647.72;5038537;28;20062;-69
2021/05/22 11:17:28;;;;;;;4.68;1.27;;;;;;;15.75;65.77;99646.16;5035896;28;20099;-69
2021/05/22 11:20:04;;;;;;;5.70;1.27;;;;;;;16.81;64.83;99639.28;5009878;28;20558;-69
2021/05/22 11:22:45;;;;;;;4.60;1.35;;;;;;;17.58;59.09;99633.09;4980678;28;20092;-68
2021/05/22 11:25:14;;;;;;;6.32;2.05;;;;;;;17.64;57.91;99629.78;4985564;28;20142;-68
2021/05/22 11:27:51;;;;;;;14.80;2.05;;;;;;;16.96;56.56;99635.91;5030980;28;20386;-69
2021/05/22 11:30:35;;;;;;;5.53;1.20;;;;;;;16.58;57.76;99639.72;4977175;28;20138;-68
2021/05/22 11:33:03;;;;;;;5.55;1.35;;;;;;;15.98;59.04;99649.25;4977118;28;20101;-69
2021/05/22 11:35:36;;;;;;;6.97;1.73;;;;;;;15.41;57.67;99646.69;5000488;28;20135;-69
2021/05/22 11:38:13;;;;;;;5.53;1.40;;;;;;;15.16;57.92;99646.34;4980743;28;20096;-69
2021/05/22 11:40:56;;;;;;;6.53;1.27;;;;;;;14.72;57.94;99663.69;5023445;28;20122;-69
2021/05/22 11:43:34;;;;;;;8.20;1.75;;;;;;;15.04;59.63;99658.09;4977112;28;20141;-69
2021/05/22 11:46:04;;;;;;;12.57;1.73;;;;;;;15.19;57.34;99653.19;5021975;28;20058;-68
2021/05/22 11:48:32;;;;;;;4.88;1.20;;;;;;;16.03;56.36;99646.97;4993920;28;20044;-67